sensor_id;sensor_type;location;lat;lon;timestamp;pressure;altitude;pressure_sealevel;temperature;humidity
53011;BME280;42803;55.762;38.084;2023-07-29T00:00:17;98558.06;;;14.33;100.00
53011;BME280;42803;55.762;38.084;2023-07-29T00:02:47;98565.88;;;14.32;100.00
53011;BME280;42803;55.762;38.084;2023-07-29T00:05:16;98564.09;;;14.31;100.00
53011;BME280;42803;55.762;38.084;2023-07-29T00:07:45;98556.94;;;14.28;100.00
53011;BME280;42803;55.762;38.084;2023-07-29T00:10:16;98545.63;;;14.29;100.00
53011;BME280;42803;55.762;38.084;2023-07-29T00:12:46;98548.19;;;14.28;100.00
53011;BME280;42803;55.762;38.084;2023-07-29T00:15:15;98543.69;;;14.25;100.00
53011;BME280;42803;55.762;38.084;2023-07-29T00:17:44;98544.41;;;14.23;100.00
53011;BME280;42803;55.762;38.084;2023-07-29T00:20:13;98536.50;;;14.21;100.00
53011;BME280;42803;55.762;38.084;2023-07-29T00:22:43;98543.38;;;14.19;100.00
53011;BME280;42803;55.762;38.084;2023-07-29T00:25:12;98550.16;;;14.14;100.00
53011;BME280;42803;55.762;38.084;2023-07-29T00:27:42;98538.75;;;14.13;100.00
53011;BME280;42803;55.762;38.084;2023-07-29T00:30:12;98529.09;;;14.12;100.00
53011;BME280;42803;55.762;38.084;2023-07-29T00:32:42;98530.81;;;14.12;100.00
53011;BME280;42803;55.762;38.084;2023-07-29T00:35:12;98532.47;;;14.10;100.00
53011;BME280;42803;55.762;38.084;2023-07-29T00:37:41;98528.94;;;14.09;100.00
53011;BME280;42803;55.762;38.084;2023-07-29T00:40:15;98528.84;;;14.08;100.00
53011;BME280;42803;55.762;38.084;2023-07-29T00:42:46;98537.50;;;14.05;100.00
53011;BME280;42803;55.762;38.084;2023-07-29T00:45:16;98532.97;;;14.03;100.00
53011;BME280;42803;55.762;38.084;2023-07-29T00:47:45;98530.34;;;14.03;100.00
53011;BME280;42803;55.762;38.084;2023-07-29T00:50:17;98532.03;;;14.01;100.00
53011;BME280;42803;55.762;38.084;2023-07-29T00:52:46;98528.56;;;14.02;100.00
53011;BME280;42803;55.762;38.084;2023-07-29T00:55:16;98542.53;;;14.01;100.00
53011;BME280;42803;55.762;38.084;2023-07-29T00:57:47;98545.06;;;13.99;100.00
53011;BME280;42803;55.762;38.084;2023-07-29T01:00:19;98539.81;;;13.99;100.00
53011;BME280;42803;55.762;38.084;2023-07-29T01:02:49;98538.03;;;13.98;100.00
53011;BME280;42803;55.762;38.084;2023-07-29T01:05:19;98530.16;;;13.98;100.00
53011;BME280;42803;55.762;38.084;2023-07-29T01:07:53;98537.97;;;13.97;100.00
53011;BME280;42803;55.762;38.084;2023-07-29T01:10:31;98532.56;;;13.94;100.00
53011;BME280;42803;55.762;38.084;2023-07-29T01:13:16;98535.97;;;13.93;100.00
53011;BME280;42803;55.762;38.084;2023-07-29T01:15:52;98530.69;;;13.91;100.00
53011;BME280;42803;55.762;38.084;2023-07-29T01:18:24;98528.06;;;13.91;100.00
53011;BME280;42803;55.762;38.084;2023-07-29T01:20:59;98524.53;;;13.90;100.00
53011;BME280;42803;55.762;38.084;2023-07-29T01:23:31;98529.78;;;13.90;100.00
53011;BME280;42803;55.762;38.084;2023-07-29T01:26:00;98524.53;;;13.90;100.00
53011;BME280;42803;55.762;38.084;2023-07-29T01:28:30;98526.25;;;13.90;100.00
53011;BME280;42803;55.762;38.084;2023-07-29T01:31:05;98522.75;;;13.89;100.00
53011;BME280;42803;55.762;38.084;2023-07-29T01:33:40;98515.84;;;13.92;100.00
53011;BME280;42803;55.762;38.084;2023-07-29T01:36:15;98508.06;;;13.93;100.00
53011;BME280;42803;55.762;38.084;2023-07-29T01:38:49;98509.75;;;13.93;100.00
53011;BME280;42803;55.762;38.084;2023-07-29T01:41:20;98515.91;;;13.93;100.00
53011;BME280;42803;55.762;38.084;2023-07-29T01:43:50;98511.47;;;13.92;100.00
53011;BME280;42803;55.762;38.084;2023-07-29T01:46:21;98494.00;;;13.93;100.00
53011;BME280;42803;55.762;38.084;2023-07-29T01:48:50;98490.38;;;13.89;100.00
53011;BME280;42803;55.762;38.084;2023-07-29T01:51:19;98493.00;;;13.89;100.00
53011;BME280;42803;55.762;38.084;2023-07-29T01:53:50;98504.22;;;13.86;100.00
53011;BME280;42803;55.762;38.084;2023-07-29T01:56:19;98502.44;;;13.85;100.00
53011;BME280;42803;55.762;38.084;2023-07-29T01:58:55;98499.88;;;13.87;100.00
53011;BME280;42803;55.762;38.084;2023-07-29T02:01:24;98509.31;;;13.83;100.00
53011;BME280;42803;55.762;38.084;2023-07-29T02:03:53;98505.88;;;13.84;100.00
53011;BME280;42803;55.762;38.084;2023-07-29T02:06:24;98512.84;;;13.84;100.00
53011;BME280;42803;55.762;38.084;2023-07-29T02:08:55;98515.31;;;13.81;100.00
53011;BME280;42803;55.762;38.084;2023-07-29T02:11:24;98522.22;;;13.79;100.00
53011;BME280;42803;55.762;38.084;2023-07-29T02:13:57;98516.09;;;13.78;100.00
53011;BME280;42803;55.762;38.084;2023-07-29T02:16:27;98515.97;;;13.77;100.00
53011;BME280;42803;55.762;38.084;2023-07-29T02:18:57;98513.25;;;13.74;100.00
53011;BME280;42803;55.762;38.084;2023-07-29T02:21:26;98504.59;;;13.76;100.00
53011;BME280;42803;55.762;38.084;2023-07-29T02:23:56;98488.81;;;13.75;100.00
53011;BME280;42803;55.762;38.084;2023-07-29T02:26:25;98502.81;;;13.75;100.00
53011;BME280;42803;55.762;38.084;2023-07-29T02:28:54;98518.53;;;13.75;100.00
53011;BME280;42803;55.762;38.084;2023-07-29T02:31:25;98529.94;;;13.76;100.00
53011;BME280;42803;55.762;38.084;2023-07-29T02:33:54;98526.41;;;13.75;100.00
53011;BME280;42803;55.762;38.084;2023-07-29T02:36:24;98544.78;;;13.75;100.00
53011;BME280;42803;55.762;38.084;2023-07-29T02:38:53;98552.59;;;13.74;100.00
53011;BME280;42803;55.762;38.084;2023-07-29T02:41:23;98556.00;;;13.73;100.00
53011;BME280;42803;55.762;38.084;2023-07-29T02:43:53;98558.63;;;13.73;100.00
53011;BME280;42803;55.762;38.084;2023-07-29T02:46:22;98562.97;;;13.72;100.00
53011;BME280;42803;55.762;38.084;2023-07-29T02:48:51;98562.09;;;13.72;100.00
53011;BME280;42803;55.762;38.084;2023-07-29T02:51:21;98554.16;;;13.70;100.00
53011;BME280;42803;55.762;38.084;2023-07-29T02:53:50;98553.38;;;13.73;100.00
53011;BME280;42803;55.762;38.084;2023-07-29T02:56:19;98554.28;;;13.73;100.00
53011;BME280;42803;55.762;38.084;2023-07-29T02:58:49;98554.28;;;13.73;100.00
53011;BME280;42803;55.762;38.084;2023-07-29T03:01:20;98552.81;;;13.78;100.00
53011;BME280;42803;55.762;38.084;2023-07-29T03:03:49;98544.03;;;13.78;100.00
53011;BME280;42803;55.762;38.084;2023-07-29T03:06:18;98536.84;;;13.74;100.00
53011;BME280;42803;55.762;38.084;2023-07-29T03:08:47;98532.50;;;13.74;100.00
53011;BME280;42803;55.762;38.084;2023-07-29T03:11:17;98527.09;;;13.71;100.00
53011;BME280;42803;55.762;38.084;2023-07-29T03:13:46;98517.50;;;13.72;100.00
53011;BME280;42803;55.762;38.084;2023-07-29T03:16:17;98513.16;;;13.72;100.00
53011;BME280;42803;55.762;38.084;2023-07-29T03:18:52;98519.22;;;13.71;100.00
53011;BME280;42803;55.762;38.084;2023-07-29T03:21:21;98516.59;;;13.71;100.00
53011;BME280;42803;55.762;38.084;2023-07-29T03:23:50;98507.75;;;13.69;100.00
53011;BME280;42803;55.762;38.084;2023-07-29T03:26:19;98518.34;;;13.71;100.00
53011;BME280;42803;55.762;38.084;2023-07-29T03:28:48;98504.22;;;13.69;100.00
53011;BME280;42803;55.762;38.084;2023-07-29T03:31:19;98506.84;;;13.69;100.00
53011;BME280;42803;55.762;38.084;2023-07-29T03:33:48;98498.16;;;13.70;100.00
53011;BME280;42803;55.762;38.084;2023-07-29T03:36:17;98498.31;;;13.73;100.00
53011;BME280;42803;55.762;38.084;2023-07-29T03:38:47;98499.19;;;13.73;100.00
53011;BME280;42803;55.762;38.084;2023-07-29T03:41:16;98495.91;;;13.77;100.00
53011;BME280;42803;55.762;38.084;2023-07-29T03:43:46;98491.28;;;13.72;100.00
53011;BME280;42803;55.762;38.084;2023-07-29T03:46:15;98492.16;;;13.72;100.00
53011;BME280;42803;55.762;38.084;2023-07-29T03:48:49;98496.66;;;13.75;100.00
53011;BME280;42803;55.762;38.084;2023-07-29T03:51:19;98485.56;;;13.80;100.00
53011;BME280;42803;55.762;38.084;2023-07-29T03:53:48;98490.22;;;13.86;100.00
53011;BME280;42803;55.762;38.084;2023-07-29T03:56:17;98481.22;;;13.81;100.00
53011;BME280;42803;55.762;38.084;2023-07-29T03:58:46;98473.34;;;13.81;100.00
53011;BME280;42803;55.762;38.084;2023-07-29T04:01:16;98457.53;;;13.79;100.00
53011;BME280;42803;55.762;38.084;2023-07-29T04:03:45;98466.25;;;13.78;100.00
53011;BME280;42803;55.762;38.084;2023-07-29T04:06:17;98461.91;;;13.79;100.00
53011;BME280;42803;55.762;38.084;2023-07-29T04:08:46;98461.91;;;13.79;100.00
53011;BME280;42803;55.762;38.084;2023-07-29T04:11:15;98469.81;;;13.80;100.00
53011;BME280;42803;55.762;38.084;2023-07-29T04:13:44;98468.09;;;13.81;100.00
53011;BME280;42803;55.762;38.084;2023-07-29T04:16:13;98472.28;;;13.77;100.00
53011;BME280;42803;55.762;38.084;2023-07-29T04:18:43;98467.19;;;13.80;100.00
53011;BME280;42803;55.762;38.084;2023-07-29T04:21:12;98466.47;;;13.83;100.00
53011;BME280;42803;55.762;38.084;2023-07-29T04:23:43;98459.47;;;13.83;100.00
53011;BME280;42803;55.762;38.084;2023-07-29T04:26:12;98456.03;;;13.84;100.00
53011;BME280;42803;55.762;38.084;2023-07-29T04:28:42;98452.66;;;13.87;100.00
53011;BME280;42803;55.762;38.084;2023-07-29T04:31:11;98444.03;;;13.89;100.00
53011;BME280;42803;55.762;38.084;2023-07-29T04:33:40;98444.03;;;13.89;100.00
53011;BME280;42803;55.762;38.084;2023-07-29T04:36:11;98421.53;;;13.95;100.00
53011;BME280;42803;55.762;38.084;2023-07-29T04:38:44;98413.88;;;13.99;100.00
53011;BME280;42803;55.762;38.084;2023-07-29T04:41:14;98417.63;;;14.04;100.00
53011;BME280;42803;55.762;38.084;2023-07-29T04:43:43;98402.69;;;14.03;100.00
53011;BME280;42803;55.762;38.084;2023-07-29T04:46:12;98396.75;;;14.07;100.00
53011;BME280;42803;55.762;38.084;2023-07-29T04:48:41;98383.72;;;14.09;100.00
53011;BME280;42803;55.762;38.084;2023-07-29T04:51:10;98372.34;;;14.08;100.00
53011;BME280;42803;55.762;38.084;2023-07-29T04:53:40;98378.72;;;14.15;100.00
53011;BME280;42803;55.762;38.084;2023-07-29T04:56:11;98370.03;;;14.16;100.00
53011;BME280;42803;55.762;38.084;2023-07-29T04:58:45;98362.28;;;14.19;100.00
53011;BME280;42803;55.762;38.084;2023-07-29T05:01:14;98365.75;;;14.18;100.00
53011;BME280;42803;55.762;38.084;2023-07-29T05:03:43;98357.13;;;14.21;100.00
53011;BME280;42803;55.762;38.084;2023-07-29T05:06:13;98368.50;;;14.21;100.00
53011;BME280;42803;55.762;38.084;2023-07-29T05:08:42;98375.56;;;14.22;100.00
53011;BME280;42803;55.762;38.084;2023-07-29T05:11:13;98377.22;;;14.20;100.00
53011;BME280;42803;55.762;38.084;2023-07-29T05:13:43;98386.06;;;14.22;100.00
53011;BME280;42803;55.762;38.084;2023-07-29T05:16:13;98398.38;;;14.23;100.00
53011;BME280;42803;55.762;38.084;2023-07-29T05:18:42;98386.59;;;14.34;100.00
53011;BME280;42803;55.762;38.084;2023-07-29T05:21:11;98389.84;;;14.48;100.00
53011;BME280;42803;55.762;38.084;2023-07-29T05:23:42;98401.69;;;14.58;100.00
53011;BME280;42803;55.762;38.084;2023-07-29T05:26:12;98421.75;;;14.57;100.00
53011;BME280;42803;55.762;38.084;2023-07-29T05:28:41;98408.22;;;14.68;100.00
53011;BME280;42803;55.762;38.084;2023-07-29T05:31:13;98424.72;;;14.65;100.00
53011;BME280;42803;55.762;38.084;2023-07-29T05:33:42;98433.31;;;14.61;100.00
53011;BME280;42803;55.762;38.084;2023-07-29T05:36:12;98436.63;;;14.57;100.00
53011;BME280;42803;55.762;38.084;2023-07-29T05:38:41;98434.16;;;14.60;100.00
53011;BME280;42803;55.762;38.084;2023-07-29T05:41:10;98437.75;;;14.62;100.00
53011;BME280;42803;55.762;38.084;2023-07-29T05:43:40;98458.66;;;14.60;100.00
53011;BME280;42803;55.762;38.084;2023-07-29T05:46:11;98448.66;;;14.52;100.00
53011;BME280;42803;55.762;38.084;2023-07-29T05:48:41;98450.78;;;14.60;100.00
53011;BME280;42803;55.762;38.084;2023-07-29T05:51:10;98457.53;;;14.54;100.00
53011;BME280;42803;55.762;38.084;2023-07-29T05:53:40;98448.34;;;14.46;100.00
53011;BME280;42803;55.762;38.084;2023-07-29T05:56:09;98461.47;;;14.46;100.00
53011;BME280;42803;55.762;38.084;2023-07-29T05:58:39;98458.66;;;14.41;100.00
53011;BME280;42803;55.762;38.084;2023-07-29T06:01:09;98459.47;;;14.40;100.00
53011;BME280;42803;55.762;38.084;2023-07-29T06:03:38;98450.06;;;14.45;100.00
53011;BME280;42803;55.762;38.084;2023-07-29T06:06:07;98454.38;;;14.43;100.00
53011;BME280;42803;55.762;38.084;2023-07-29T06:08:36;98461.38;;;14.43;100.00
53011;BME280;42803;55.762;38.084;2023-07-29T06:11:05;98459.69;;;14.45;100.00
53011;BME280;42803;55.762;38.084;2023-07-29T06:13:35;98465.78;;;14.44;100.00
53011;BME280;42803;55.762;38.084;2023-07-29T06:16:05;98470.75;;;14.37;100.00
53011;BME280;42803;55.762;38.084;2023-07-29T06:18:35;98468.25;;;14.41;100.00
53011;BME280;42803;55.762;38.084;2023-07-29T06:21:05;98463.69;;;14.36;100.00
53011;BME280;42803;55.762;38.084;2023-07-29T06:23:35;98466.19;;;14.33;100.00
53011;BME280;42803;55.762;38.084;2023-07-29T06:26:04;98478.56;;;14.36;100.00
53011;BME280;42803;55.762;38.084;2023-07-29T06:28:34;98482.03;;;14.35;100.00
53011;BME280;42803;55.762;38.084;2023-07-29T06:31:05;98482.03;;;14.35;100.00
53011;BME280;42803;55.762;38.084;2023-07-29T06:33:34;98478.56;;;14.36;100.00
53011;BME280;42803;55.762;38.084;2023-07-29T06:36:04;98479.50;;;14.38;100.00
53011;BME280;42803;55.762;38.084;2023-07-29T06:38:34;98476.28;;;14.44;100.00
53011;BME280;42803;55.762;38.084;2023-07-29T06:41:04;98480.13;;;14.50;100.00
53011;BME280;42803;55.762;38.084;2023-07-29T06:43:34;98485.25;;;14.49;100.00
53011;BME280;42803;55.762;38.084;2023-07-29T06:46:04;98486.03;;;14.46;100.00
53011;BME280;42803;55.762;38.084;2023-07-29T06:48:33;98485.09;;;14.46;100.00
53011;BME280;42803;55.762;38.084;2023-07-29T06:51:03;98483.31;;;14.45;100.00
53011;BME280;42803;55.762;38.084;2023-07-29T06:53:32;98480.69;;;14.45;100.00
53011;BME280;42803;55.762;38.084;2023-07-29T06:56:01;98481.59;;;14.45;100.00
53011;BME280;42803;55.762;38.084;2023-07-29T06:58:31;98475.38;;;14.43;100.00
53011;BME280;42803;55.762;38.084;2023-07-29T07:01:00;98482.47;;;14.46;100.00
53011;BME280;42803;55.762;38.084;2023-07-29T07:03:32;98480.69;;;14.45;100.00
53011;BME280;42803;55.762;38.084;2023-07-29T07:06:01;98485.09;;;14.46;100.00
53011;BME280;42803;55.762;38.084;2023-07-29T07:08:31;98485.00;;;14.43;100.00
53011;BME280;42803;55.762;38.084;2023-07-29T07:11:00;98481.53;;;14.44;100.00
53011;BME280;42803;55.762;38.084;2023-07-29T07:13:29;98479.84;;;14.46;100.00
53011;BME280;42803;55.762;38.084;2023-07-29T07:15:58;98488.56;;;14.45;100.00
53011;BME280;42803;55.762;38.084;2023-07-29T07:18:29;98483.31;;;14.45;100.00
53011;BME280;42803;55.762;38.084;2023-07-29T07:21:00;98484.31;;;14.47;100.00
53011;BME280;42803;55.762;38.084;2023-07-29T07:23:29;98474.75;;;14.49;100.00
53011;BME280;42803;55.762;38.084;2023-07-29T07:25:58;98473.94;;;14.50;100.00
53011;BME280;42803;55.762;38.084;2023-07-29T07:28:27;98476.56;;;14.50;100.00
53011;BME280;42803;55.762;38.084;2023-07-29T07:30:57;98473.28;;;14.54;100.00
53011;BME280;42803;55.762;38.084;2023-07-29T07:33:27;98478.03;;;14.62;100.00
53011;BME280;42803;55.762;38.084;2023-07-29T07:35:56;98480.56;;;14.61;100.00
53011;BME280;42803;55.762;38.084;2023-07-29T07:38:26;98477.00;;;14.59;100.00
53011;BME280;42803;55.762;38.084;2023-07-29T07:40:56;98478.03;;;14.62;100.00
53011;BME280;42803;55.762;38.084;2023-07-29T07:43:25;98483.19;;;14.61;100.00
53011;BME280;42803;55.762;38.084;2023-07-29T07:45:58;98489.28;;;14.60;100.00
53011;BME280;42803;55.762;38.084;2023-07-29T07:48:28;98485.06;;;14.63;100.00
53011;BME280;42803;55.762;38.084;2023-07-29T07:50:57;98480.47;;;14.58;100.00
53011;BME280;42803;55.762;38.084;2023-07-29T07:53:29;98491.78;;;14.57;100.00
53011;BME280;42803;55.762;38.084;2023-07-29T07:55:58;98497.03;;;14.57;100.00
53011;BME280;42803;55.762;38.084;2023-07-29T07:58:28;98494.28;;;14.54;100.00
53011;BME280;42803;55.762;38.084;2023-07-29T08:01:01;98488.09;;;14.53;100.00
53011;BME280;42803;55.762;38.084;2023-07-29T08:03:31;98492.47;;;14.53;100.00
53011;BME280;42803;55.762;38.084;2023-07-29T08:06:00;98499.41;;;14.51;100.00
53011;BME280;42803;55.762;38.084;2023-07-29T08:08:31;98501.19;;;14.52;100.00
53011;BME280;42803;55.762;38.084;2023-07-29T08:11:00;98497.56;;;14.50;100.00
53011;BME280;42803;55.762;38.084;2023-07-29T08:13:29;98497.88;;;14.56;100.00
53011;BME280;42803;55.762;38.084;2023-07-29T08:15:58;98497.72;;;14.53;100.00
53011;BME280;42803;55.762;38.084;2023-07-29T08:18:27;98498.38;;;14.49;100.00
53011;BME280;42803;55.762;38.084;2023-07-29T08:20:58;98499.06;;;14.45;100.00
53011;BME280;42803;55.762;38.084;2023-07-29T08:23:35;98519.19;;;14.44;100.00
53011;BME280;42803;55.762;38.084;2023-07-29T08:26:05;98519.81;;;14.38;100.00
53011;BME280;42803;55.762;38.084;2023-07-29T08:28:36;98510.13;;;14.37;100.00
53011;BME280;42803;55.762;38.084;2023-07-29T08:31:07;98523.25;;;14.37;100.00
53011;BME280;42803;55.762;38.084;2023-07-29T08:33:36;98513.63;;;14.38;100.00
53011;BME280;42803;55.762;38.084;2023-07-29T08:36:06;98518.09;;;14.39;100.00
53011;BME280;42803;55.762;38.084;2023-07-29T08:38:36;98516.84;;;14.31;100.00
53011;BME280;42803;55.762;38.084;2023-07-29T08:41:11;98518.63;;;14.32;100.00
53011;BME280;42803;55.762;38.084;2023-07-29T08:43:46;98522.00;;;14.29;100.00
53011;BME280;42803;55.762;38.084;2023-07-29T08:46:19;98529.72;;;14.26;100.00
53011;BME280;42803;55.762;38.084;2023-07-29T08:48:49;98515.84;;;14.29;100.00
53011;BME280;42803;55.762;38.084;2023-07-29T08:51:19;98513.28;;;14.30;100.00
53011;BME280;42803;55.762;38.084;2023-07-29T08:53:52;98518.63;;;14.32;100.00
53011;BME280;42803;55.762;38.084;2023-07-29T08:56:22;98523.09;;;14.34;100.00
53011;BME280;42803;55.762;38.084;2023-07-29T08:58:52;98509.91;;;14.33;100.00
53011;BME280;42803;55.762;38.084;2023-07-29T09:01:22;98519.56;;;14.34;100.00
53011;BME280;42803;55.762;38.084;2023-07-29T09:03:52;98522.19;;;14.34;100.00
53011;BME280;42803;55.762;38.084;2023-07-29T09:06:21;98523.72;;;14.29;100.00
53011;BME280;42803;55.762;38.084;2023-07-29T09:08:54;98525.44;;;14.28;100.00
53011;BME280;42803;55.762;38.084;2023-07-29T09:11:25;98529.81;;;14.28;100.00
53011;BME280;42803;55.762;38.084;2023-07-29T09:13:55;98529.88;;;14.29;100.00
53011;BME280;42803;55.762;38.084;2023-07-29T09:16:24;98524.63;;;14.29;100.00
53011;BME280;42803;55.762;38.084;2023-07-29T09:18:54;98520.88;;;14.24;100.00
53011;BME280;42803;55.762;38.084;2023-07-29T09:21:25;98533.03;;;14.22;100.00
53011;BME280;42803;55.762;38.084;2023-07-29T09:24:02;98536.63;;;14.24;100.00
53011;BME280;42803;55.762;38.084;2023-07-29T09:26:32;98535.94;;;14.28;100.00
53011;BME280;42803;55.762;38.084;2023-07-29T09:29:01;98538.78;;;14.33;100.00
53011;BME280;42803;55.762;38.084;2023-07-29T09:31:33;98542.75;;;14.43;100.00
53011;BME280;42803;55.762;38.084;2023-07-29T09:34:04;98543.00;;;14.49;100.00
53011;BME280;42803;55.762;38.084;2023-07-29T09:36:34;98543.66;;;14.43;100.00
53011;BME280;42803;55.762;38.084;2023-07-29T09:39:10;98536.66;;;14.44;100.00
53011;BME280;42803;55.762;38.084;2023-07-29T09:41:40;98547.47;;;14.50;100.00
53011;BME280;42803;55.762;38.084;2023-07-29T09:44:10;98540.09;;;14.60;100.00
53011;BME280;42803;55.762;38.084;2023-07-29T09:46:40;98548.06;;;14.81;100.00
53011;BME280;42803;55.762;38.084;2023-07-29T09:49:09;98543.91;;;14.86;100.00
53011;BME280;42803;55.762;38.084;2023-07-29T09:51:39;98542.81;;;14.81;100.00
53011;BME280;42803;55.762;38.084;2023-07-29T09:54:10;98536.16;;;14.70;100.00
53011;BME280;42803;55.762;38.084;2023-07-29T09:56:42;98547.22;;;14.63;100.00
53011;BME280;42803;55.762;38.084;2023-07-29T09:59:12;98545.44;;;14.62;100.00
53011;BME280;42803;55.762;38.084;2023-07-29T10:01:41;98541.47;;;14.72;100.00
53011;BME280;42803;55.762;38.084;2023-07-29T10:04:11;98545.34;;;14.80;100.00
53011;BME280;42803;55.762;38.084;2023-07-29T10:06:42;98543.34;;;14.94;100.00
53011;BME280;42803;55.762;38.084;2023-07-29T10:09:13;98544.38;;;14.97;100.00
53011;BME280;42803;55.762;38.084;2023-07-29T10:11:43;98537.31;;;15.16;100.00
53011;BME280;42803;55.762;38.084;2023-07-29T10:14:14;98540.13;;;15.20;100.00
53011;BME280;42803;55.762;38.084;2023-07-29T10:16:46;98536.78;;;15.03;100.00
53011;BME280;42803;55.762;38.084;2023-07-29T10:19:15;98539.50;;;15.06;100.00
53011;BME280;42803;55.762;38.084;2023-07-29T10:21:48;98541.47;;;14.91;100.00
53011;BME280;42803;55.762;38.084;2023-07-29T10:24:24;98530.63;;;14.83;100.00
53011;BME280;42803;55.762;38.084;2023-07-29T10:26:58;98543.84;;;14.85;100.00
53011;BME280;42803;55.762;38.084;2023-07-29T10:29:30;98538.69;;;14.88;100.00
53011;BME280;42803;55.762;38.084;2023-07-29T10:32:02;98546.81;;;14.93;100.00
53011;BME280;42803;55.762;38.084;2023-07-29T10:34:32;98546.81;;;14.93;100.00
53011;BME280;42803;55.762;38.084;2023-07-29T10:37:04;98541.59;;;14.94;100.00
53011;BME280;42803;55.762;38.084;2023-07-29T10:39:39;98529.31;;;14.93;100.00
53011;BME280;42803;55.762;38.084;2023-07-29T10:42:08;98543.47;;;14.97;100.00
53011;BME280;42803;55.762;38.084;2023-07-29T10:44:48;98549.56;;;14.96;100.00
53011;BME280;42803;55.762;38.084;2023-07-29T10:47:22;98550.03;;;14.87;100.00
53011;BME280;42803;55.762;38.084;2023-07-29T10:49:54;98543.69;;;14.82;100.00
53011;BME280;42803;55.762;38.084;2023-07-29T10:52:39;98540.88;;;14.77;100.00
53011;BME280;42803;55.762;38.084;2023-07-29T10:55:28;98541.66;;;14.76;100.00
53011;BME280;42803;55.762;38.084;2023-07-29T10:58:09;98539.03;;;14.76;100.00
53011;BME280;42803;55.762;38.084;2023-07-29T11:00:39;98545.84;;;14.71;100.00
53011;BME280;42803;55.762;38.084;2023-07-29T11:03:12;98551.09;;;14.71;100.00
53011;BME280;42803;55.762;38.084;2023-07-29T11:05:47;98545.78;;;14.70;100.00
53011;BME280;42803;55.762;38.084;2023-07-29T11:08:26;98549.28;;;14.70;100.00
53011;BME280;42803;55.762;38.084;2023-07-29T11:11:03;98557.72;;;14.63;100.00
53011;BME280;42803;55.762;38.084;2023-07-29T11:13:34;98550.25;;;14.53;100.00
53011;BME280;42803;55.762;38.084;2023-07-29T11:16:05;98553.25;;;14.43;100.00
53011;BME280;42803;55.762;38.084;2023-07-29T11:18:35;98554.69;;;14.36;100.00
53011;BME280;42803;55.762;38.084;2023-07-29T11:21:05;98555.63;;;14.38;100.00
53011;BME280;42803;55.762;38.084;2023-07-29T11:23:36;98557.91;;;14.30;100.00
53011;BME280;42803;55.762;38.084;2023-07-29T11:26:07;98563.78;;;14.25;100.00
53011;BME280;42803;55.762;38.084;2023-07-29T11:28:39;98562.72;;;14.21;100.00
53011;BME280;42803;55.762;38.084;2023-07-29T11:31:08;98568.81;;;14.20;100.00
53011;BME280;42803;55.762;38.084;2023-07-29T11:33:39;98571.44;;;14.20;100.00
53011;BME280;42803;55.762;38.084;2023-07-29T11:36:17;98565.72;;;14.29;100.00
53011;BME280;42803;55.762;38.084;2023-07-29T11:38:47;98574.50;;;14.29;100.00
53011;BME280;42803;55.762;38.084;2023-07-29T11:41:20;98564.53;;;14.22;100.00
53011;BME280;42803;55.762;38.084;2023-07-29T11:43:51;98571.59;;;14.23;100.00
53011;BME280;42803;55.762;38.084;2023-07-29T11:46:23;98578.78;;;14.27;100.00
53011;BME280;42803;55.762;38.084;2023-07-29T11:48:53;98577.81;;;14.25;100.00
53011;BME280;42803;55.762;38.084;2023-07-29T11:51:23;98590.41;;;14.32;100.00
53011;BME280;42803;55.762;38.084;2023-07-29T11:53:52;98586.78;;;14.30;100.00
53011;BME280;42803;55.762;38.084;2023-07-29T11:56:23;98582.22;;;14.26;100.00
53011;BME280;42803;55.762;38.084;2023-07-29T11:58:53;98580.84;;;14.34;100.00
53011;BME280;42803;55.762;38.084;2023-07-29T12:01:23;98587.78;;;14.32;100.00
53011;BME280;42803;55.762;38.084;2023-07-29T12:03:52;98581.91;;;14.38;100.00
53011;BME280;42803;55.762;38.084;2023-07-29T12:06:22;98585.50;;;14.40;100.00
53011;BME280;42803;55.762;38.084;2023-07-29T12:08:52;98584.41;;;14.35;100.00
53011;BME280;42803;55.762;38.084;2023-07-29T12:11:23;98588.19;;;14.42;100.00
53011;BME280;42803;55.762;38.084;2023-07-29T12:13:53;98584.75;;;14.43;100.00
53011;BME280;42803;55.762;38.084;2023-07-29T12:16:22;98584.31;;;14.51;100.00
53011;BME280;42803;55.762;38.084;2023-07-29T12:18:52;98580.09;;;14.55;100.00
53011;BME280;42803;55.762;38.084;2023-07-29T12:21:21;98588.50;;;14.66;100.00
53011;BME280;42803;55.762;38.084;2023-07-29T12:23:50;98591.31;;;14.70;100.00
53011;BME280;42803;55.762;38.084;2023-07-29T12:26:20;98592.00;;;14.66;100.00
53011;BME280;42803;55.762;38.084;2023-07-29T12:28:50;98586.22;;;14.73;100.00
53011;BME280;42803;55.762;38.084;2023-07-29T12:31:19;98585.63;;;14.80;100.00
53011;BME280;42803;55.762;38.084;2023-07-29T12:33:49;98588.41;;;14.83;100.00
53011;BME280;42803;55.762;38.084;2023-07-29T12:36:27;98590.50;;;14.71;100.00
53011;BME280;42803;55.762;38.084;2023-07-29T12:39:16;98584.41;;;14.72;100.00
53011;BME280;42803;55.762;38.084;2023-07-29T12:41:45;98584.28;;;14.69;100.00
53011;BME280;42803;55.762;38.084;2023-07-29T12:44:18;98578.41;;;14.75;100.00
53011;BME280;42803;55.762;38.084;2023-07-29T12:46:47;98573.84;;;14.90;100.00
53011;BME280;42803;55.762;38.084;2023-07-29T12:49:17;98576.25;;;14.85;100.00
53011;BME280;42803;55.762;38.084;2023-07-29T12:51:47;98582.25;;;14.83;100.00
53011;BME280;42803;55.762;38.084;2023-07-29T12:54:17;98577.66;;;14.77;100.00
53011;BME280;42803;55.762;38.084;2023-07-29T12:56:46;98575.63;;;14.72;100.00